D/T METAR WX W/SPE G/SPE TEMP DEWP FEEL
31/01/23 07:20 EGOP 310720Z AUTO 28018KT 9999 OVC011/// 09/08 Q1025 20.7mph 9°C 8°C 9.4°C
31/01/23 06:50 EGOP 310650Z AUTO 27015KT 9999 OVC010/// 09/08 Q1025 17.3mph 9°C 8°C 9.4°C
31/01/23 05:50 EGOP 310550Z AUTO 27017KT 8000 OVC012/// 09/07 Q1025 19.6mph 9°C 7°C 9.0°C
30/01/23 21:50 EGOP 302150Z AUTO 17003KT 9999 OVC047/// 03/02 Q1028 3.5mph 3°C 2°C 1.4°C
30/01/23 12:50 EGOP 301250Z 30012KT 9999 BKN028 10/04 Q1028 RMK BLU 13.8mph 10°C 4°C 9.0°C
30/01/23 11:50 EGOP 301150Z 28012KT 9999 FEW026 09/04 Q1029 RMK BLU 13.8mph 9°C 4°C 8.0°C
30/01/23 10:50 EGOP 301050Z 28010KT 9999 FEW037 FEW180 07/04 Q1029 RMK BLU 11.5mph 7°C 4°C 6.0°C
30/01/23 09:50 EGOP 300950Z 28012KT 9999 FEW034 FEW180 06/03 Q1028 RMK BLU 13.8mph 6°C 3°C 4.7°C
30/01/23 07:50 EGOP 300750Z AUTO 28011KT 9999 NCD 06/03 Q1027 12.7mph 6°C 3°C 4.7°C
09/01/23 06:20 EGOP 090620Z AUTO 28026KT 9999 OVC028/// 08/05 Q0997 29.9mph 8°C 5°C 7.3°C
09/01/23 05:50 EGOP 090550Z AUTO 28025KT 9999 OVC026/// 08/05 Q0996 28.8mph 8°C 5°C 7.3°C
09/01/23 05:20 EGOP 090520Z AUTO 28025G35KT 9999 OVC027/// 08/06 Q0996 28.8mph 40.3mph 8°C 6°C 7.6°C
09/01/23 04:50 EGOP 090450Z AUTO 28028KT 7000 OVC020/// 07/05 Q0995 32.2mph 7°C 5°C 6.3°C
09/01/23 04:20 EGOP 090420Z AUTO 28026KT 9999 OVC025/// 08/05 Q0994 29.9mph 8°C 5°C 7.3°C
09/01/23 03:50 EGOP 090350Z AUTO 28027KT 9999 OVC028/// 08/04 Q0994 31.1mph 8°C 4°C 7.0°C
09/01/23 03:20 EGOP 090320Z AUTO 28025KT 9999 FEW042/// 08/04 Q0994 28.8mph 8°C 4°C 7.0°C
09/01/23 02:50 EGOP 090250Z AUTO 28023KT 9999 FEW044/// 08/04 Q0994 26.5mph 8°C 4°C 7.0°C
09/01/23 02:20 EGOP 090220Z AUTO 28023KT 9999 FEW027/// 08/04 Q0993 26.5mph 8°C 4°C 7.0°C
09/01/23 01:20 EGOP 090120Z AUTO 28017KT 9999 FEW026/// 08/05 Q0992 19.6mph 8°C 5°C 7.3°C
09/01/23 00:50 EGOP 090050Z AUTO 28022KT 9999 FEW021/// SCT028/// 08/05 Q0992 25.3mph 8°C 5°C 7.3°C
09/01/23 00:20 EGOP 090020Z AUTO 27020KT 9999 BKN022/// 08/06 Q0991 23.0mph 8°C 6°C 7.6°C
08/01/23 23:50 EGOP 082350Z AUTO 28018KT 9999 FEW069/// 08/06 Q0991 20.7mph 8°C 6°C 7.6°C
08/01/23 23:20 EGOP 082320Z AUTO 28019KT 9999 FEW074/// 08/05 Q0990 21.9mph 8°C 5°C 7.3°C
08/01/23 22:50 EGOP 082250Z AUTO 28020KT 9999 SCT029/// SCT049/// 08/06 Q0990 23.0mph 8°C 6°C 7.6°C
08/01/23 22:20 EGOP 082220Z AUTO 28015KT 9999 OVC027/// 08/06 Q0989 17.3mph 8°C 6°C 7.6°C
08/01/23 21:50 EGOP 082150Z AUTO 29017KT 9999 FEW024/// 07/05 Q0989 19.6mph 7°C 5°C 6.3°C
08/01/23 20:20 EGOP 082020Z AUTO 31012KT 8000 FEW011/// 07/06 Q0987 13.8mph 7°C 6°C 6.6°C
08/01/23 19:20 EGOP 081920Z AUTO 32004KT 2500 FEW012/// SCT020/// BKN031/// 08/06 Q0985 4.6mph 8°C 6°C 7.6°C
08/01/23 18:50 EGOP 081850Z AUTO 22017KT 5000 OVC016/// 08/07 Q0984 19.6mph 8°C 7°C 8.0°C
08/01/23 18:20 EGOP 081820Z AUTO 22021KT 4300 OVC017/// 09/06 Q0984 24.2mph 9°C 6°C 8.6°C
08/01/23 17:50 EGOP 081750Z AUTO 21023KT 8000 BKN022/// OVC040/// 09/06 Q0985 26.5mph 9°C 6°C 8.6°C
08/01/23 17:20 EGOP 081720Z AUTO 21020KT 9000 FEW029/// OVC043/// 08/06 Q0985 23.0mph 8°C 6°C 7.6°C
08/01/23 16:50 EGOP 081650Z AUTO 20019KT 9000 OVC027/// 08/05 Q0985 21.9mph 8°C 5°C 7.3°C
08/01/23 16:20 EGOP 081620Z AUTO 21015KT 9999 FEW032/// BKN041/// 08/05 Q0986 17.3mph 8°C 5°C 7.3°C
08/01/23 15:50 EGOP 081550Z AUTO 24024KT 9999 OVC027/// 08/05 Q0986 27.6mph 8°C 5°C 7.3°C
08/01/23 15:20 EGOP 081520Z AUTO 23022KT 9999 SCT028/// 09/04 Q0986 25.3mph 9°C 4°C 8.0°C
08/01/23 14:20 EGOP 081420Z AUTO 25019KT 9999 NCD 08/04 Q0987 21.9mph 8°C 4°C 7.0°C
08/01/23 13:50 EGOP 081350Z AUTO 26024KT 9999 FEW020/// 08/04 Q0987 27.6mph 8°C 4°C 7.0°C
08/01/23 13:20 EGOP 081320Z AUTO 26021KT 9999 FEW043/// SCT052/// 09/05 Q0987 24.2mph 9°C 5°C 8.3°C
08/01/23 12:50 EGOP 081250Z AUTO 25021KT 9999 FEW027/// BKN051/// 08/05 Q0987 24.2mph 8°C 5°C 7.3°C
08/01/23 12:20 EGOP 081220Z AUTO 27017KT 9999 BKN018/// SCT034/// 08/05 Q0987 19.6mph 8°C 5°C 7.3°C
08/01/23 11:50 EGOP 081150Z AUTO 26021KT 9999 FEW019/// 09/05 Q0987 24.2mph 9°C 5°C 8.3°C
08/01/23 11:20 EGOP 081120Z AUTO 25023KT 9999 OVC016/// 08/06 Q0987 26.5mph 8°C 6°C 7.6°C
08/01/23 10:50 EGOP 081050Z AUTO 24021KT 9999 FEW008/// OVC021/// 08/06 Q0987 24.2mph 8°C 6°C 7.6°C
08/01/23 10:20 EGOP 081020Z AUTO 24026KT 1900 OVC021/// 08/05 Q0987 29.9mph 8°C 5°C 7.3°C
08/01/23 09:50 EGOP 080950Z AUTO 24024KT 9999 SCT016/// OVC036/// 08/06 Q0987 27.6mph 8°C 6°C 7.6°C
08/01/23 09:20 EGOP 080920Z AUTO 21032G44KT 1800 OVC020/// 08/06 Q0987 36.8mph 50.6mph 8°C 6°C 7.6°C
08/01/23 08:50 EGOP 080850Z AUTO 20034G47KT 1700 FEW011/// OVC016/// 09/07 Q0987 39.1mph 54.1mph 9°C 7°C 9.0°C
08/01/23 08:20 EGOP 080820Z AUTO 23024G36KT 5000 OVC011/// 08/06 Q0987 27.6mph 41.4mph 8°C 6°C 7.6°C
08/01/23 07:50 EGOP 080750Z AUTO 21027G38KT 6000 SCT019/// 09/06 Q0988 31.1mph 43.7mph 9°C 6°C 8.6°C
08/01/23 07:20 EGOP 080720Z AUTO 20018KT 4400 BKN022/// BKN043/// 09/07 Q0988 20.7mph 9°C 7°C 9.0°C
08/01/23 06:50 EGOP 080650Z AUTO 19010G20KT 4300 SCT018/// SCT066/// 08/07 Q0989 11.5mph 23.0mph 8°C 7°C 8.0°C
08/01/23 06:20 EGOP 080620Z AUTO 13008KT 9999 OVC019/// 07/05 Q0990 9.2mph 7°C 5°C 6.3°C
08/01/23 05:50 EGOP 080550Z AUTO 20008KT 4900 OVC015/// 07/06 Q0990 9.2mph 7°C 6°C 6.6°C
08/01/23 05:20 EGOP 080520Z AUTO 19013KT 9000 OVC024/// 07/06 Q0991 15.0mph 7°C 6°C 6.6°C
08/01/23 04:50 EGOP 080450Z AUTO 21018KT 4600 OVC031/// 07/05 Q0991 20.7mph 7°C 5°C 6.3°C
08/01/23 04:20 EGOP 080420Z AUTO 23019KT 4600 BKN031/// 08/05 Q0992 21.9mph 8°C 5°C 7.3°C
08/01/23 03:50 EGOP 080350Z AUTO 25011KT 5000 BKN027/// SCT052/// 07/04 Q0991 12.7mph 7°C 4°C 6.0°C
08/01/23 03:20 EGOP 080320Z AUTO 27022KT 1600 BKN025/// 08/05 Q0992 25.3mph 8°C 5°C 7.3°C
08/01/23 02:50 EGOP 080250Z AUTO 23025KT 9999 OVC033/// 09/06 Q0991 28.8mph 9°C 6°C 8.6°C
08/01/23 02:20 EGOP 080220Z AUTO 22022KT 9999 OVC066/// 09/06 Q0991 25.3mph 9°C 6°C 8.6°C
08/01/23 01:50 EGOP 080150Z AUTO 21024KT 9999 FEW036/// BKN073/// 08/05 Q0991 27.6mph 8°C 5°C 7.3°C
08/01/23 01:20 EGOP 080120Z AUTO 22022KT 3800 SCT034/// BKN051/// 09/07 Q0992 25.3mph 9°C 7°C 9.0°C
08/01/23 00:20 EGOP 080020Z AUTO 27029KT 7000 OVC019/// 08/06 Q0992 33.4mph 8°C 6°C 7.6°C
07/01/23 23:50 EGOP 072350Z AUTO 23029KT 9999 BKN026/// BKN047/// 10/06 Q0992 33.4mph 10°C 6°C 9.6°C
07/01/23 23:20 EGOP 072320Z AUTO 24029G41KT 9999 OVC021/// 09/06 Q0992 33.4mph 47.2mph 9°C 6°C 8.6°C
07/01/23 22:50 EGOP 072250Z AUTO 22025KT 8000 FEW034/// SCT050/// 09/06 Q0992 28.8mph 9°C 6°C 8.6°C
07/01/23 22:20 EGOP 072220Z AUTO 22026KT 8000 BKN026/// 10/07 Q0992 29.9mph 10°C 7°C 10.0°C
07/01/23 21:50 EGOP 072150Z AUTO 22030KT 8000 FEW023/// 10/07 Q0992 34.5mph 10°C 7°C 10.0°C
07/01/23 21:20 EGOP 072120Z AUTO 22031KT 7000 SCT026/// 10/07 Q0991 35.7mph 10°C 7°C 10.0°C
07/01/23 20:50 EGOP 072050Z AUTO 23029KT 6000 NCD 10/07 Q0991 33.4mph 10°C 7°C 10.0°C
07/01/23 20:20 EGOP 072020Z AUTO 22034G44KT 7000 SCT023/// 09/05 Q0992 39.1mph 50.6mph 9°C 5°C 8.3°C
07/01/23 19:50 EGOP 071950Z AUTO 23031KT 7000 OVC026/// 10/07 Q0992 35.7mph 10°C 7°C 10.0°C
07/01/23 19:20 EGOP 071920Z AUTO 22034KT 7000 OVC024/// 10/07 Q0991 39.1mph 10°C 7°C 10.0°C
07/01/23 18:50 EGOP 071850Z AUTO 23033G47KT 6000 OVC023/// 10/07 Q0991 38.0mph 54.1mph 10°C 7°C 10.0°C
07/01/23 18:20 EGOP 071820Z AUTO 22033KT 6000 SCT022/// BKN041/// 10/07 Q0991 38.0mph 10°C 7°C 10.0°C
07/01/23 17:50 EGOP 071750Z AUTO 22029KT 7000 SCT027/// BKN041/// 10/06 Q0991 33.4mph 10°C 6°C 9.6°C
07/01/23 17:20 EGOP 071720Z AUTO 22031KT 9000 OVC029/// 10/06 Q0991 35.7mph 10°C 6°C 9.6°C
07/01/23 16:50 EGOP 071650Z AUTO 23028KT 9999 FEW031/// SCT061/// 10/05 Q0991 32.2mph 10°C 5°C 9.3°C
07/01/23 16:20 EGOP 071620Z AUTO 23030KT 9000 SCT028/// 10/06 Q0991 34.5mph 10°C 6°C 9.6°C
07/01/23 15:50 EGOP 071550Z AUTO 22026KT 9999 FEW012/// SCT049/// 09/07 Q0991 29.9mph 9°C 7°C 9.0°C
07/01/23 15:20 EGOP 071520Z AUTO 24025KT 9999 BKN034/// SCT054/// 09/06 Q0991 28.8mph 9°C 6°C 8.6°C
07/01/23 14:50 EGOP 071450Z AUTO 22025G37KT 9999 FEW023/// OVC030/// 09/07 Q0991 28.8mph 42.6mph 9°C 7°C 9.0°C
07/01/23 14:20 EGOP 071420Z AUTO 22029KT 9999 OVC019/// 10/06 Q0991 33.4mph 10°C 6°C 9.6°C
07/01/23 13:50 EGOP 071350Z AUTO 22026KT 9999 SCT021/// BKN045/// 10/08 Q0991 29.9mph 10°C 8°C 10.4°C
07/01/23 12:50 EGOP 071250Z AUTO 21026KT 9999 OVC020/// 11/08 Q0991 29.9mph 11°C 8°C 11.4°C
07/01/23 12:20 EGOP 071220Z AUTO 20023KT 9999 FEW019/// BKN028/// BKN093/// 11/08 Q0992 26.5mph 11°C 8°C 11.4°C
07/01/23 11:50 EGOP 071150Z AUTO 21024KT 7000 FEW013/// OVC017/// 10/08 Q0992 27.6mph 10°C 8°C 10.4°C
07/01/23 11:20 EGOP 071120Z AUTO 21023KT 4600 SCT019/// OVC040/// 11/08 Q0993 26.5mph 11°C 8°C 11.4°C
07/01/23 10:50 EGOP 071050Z AUTO 21020KT 9999 OVC039/// 11/08 Q0993 23.0mph 11°C 8°C 11.4°C
07/01/23 10:20 EGOP 071020Z AUTO 21020KT 9999 FEW023/// 10/08 Q0993 23.0mph 10°C 8°C 10.4°C
07/01/23 09:50 EGOP 070950Z AUTO 21021KT 9999 FEW020/// 10/08 Q0993 24.2mph 10°C 8°C 10.4°C
07/01/23 09:20 EGOP 070920Z AUTO 21020KT 9999 OVC050/// 10/08 Q0993 23.0mph 10°C 8°C 10.4°C
07/01/23 08:50 EGOP 070850Z AUTO 21014KT 7000 BKN053/// SCT070/// 10/09 Q0993 16.1mph 10°C 9°C 10.8°C
07/01/23 08:20 EGOP 070820Z AUTO 21009KT 3700 FEW027/// BKN043/// 09/08 Q0993 10.4mph 9°C 8°C 9.4°C
07/01/23 07:50 EGOP 070750Z AUTO 26022KT 2900 OVC005/// 09/08 Q0993 25.3mph 9°C 8°C 9.4°C